Time;durP1;ratioP1;P1;durP2;ratioP2;P2;SDS_P1;SDS_P2;PMS_P1;PMS_P2;Temp;Humidity;BMP_temperature;BMP_pressure;BME280_temperature;BME280_humidity;BME280_pressure;Samples;Min_cycle;Max_cycle;Signal;HPM_P1;HPM_P2
2021/03/17 00:01:05;;;;;;;5.20;2.85;;;4.70;99.90;;;;;;1906017;74;21085;-74
2021/03/17 00:03:31;;;;;;;4.30;2.85;;;4.70;99.90;;;;;;1912292;75;21079;-72
2021/03/17 00:05:57;;;;;;;2.17;1.98;;;4.70;99.90;;;;;;1893114;73;21089;-72
2021/03/17 00:08:23;;;;;;;5.97;2.00;;;4.60;99.90;;;;;;1884826;73;21124;-74
2021/03/17 00:10:49;;;;;;;2.42;1.98;;;4.60;99.90;;;;;;1890794;73;21058;-73
2021/03/17 00:13:15;;;;;;;2.40;2.08;;;4.60;99.90;;;;;;1908521;75;21049;-73
2021/03/17 00:15:41;;;;;;;3.92;2.30;;;4.60;99.90;;;;;;1903709;74;21093;-72
2021/03/17 00:18:07;;;;;;;3.42;1.85;;;4.60;99.90;;;;;;1890962;73;21517;-73
2021/03/17 00:20:34;;;;;;;7.35;2.00;;;4.60;99.90;;;;;;1879403;73;21537;-73
2021/03/17 00:23:00;;;;;;;3.22;1.65;;;4.60;99.90;;;;;;1897541;74;21134;-73
2021/03/17 00:25:26;;;;;;;3.27;1.82;;;4.60;99.90;;;;;;1907583;74;21088;-73
2021/03/17 00:27:52;;;;;;;2.22;1.85;;;4.60;99.90;;;;;;1884654;73;21085;-73
2021/03/17 00:30:18;;;;;;;1.98;1.77;;;4.60;99.90;;;;;;1896180;73;21159;-73
2021/03/17 00:32:44;;;;;;;2.15;1.95;;;4.60;99.90;;;;;;1890881;73;21048;-71
2021/03/17 00:35:10;;;;;;;4.33;2.20;;;4.60;99.90;;;;;;1904326;75;21060;-72
2021/03/17 00:37:36;;;;;;;2.27;2.00;;;4.50;99.90;;;;;;1906476;73;21166;-72
2021/03/17 00:40:03;;;;;;;2.45;2.17;;;4.50;99.90;;;;;;1899878;74;21517;-72
2021/03/17 00:42:29;;;;;;;2.10;1.90;;;4.40;99.90;;;;;;1906861;74;21551;-72
2021/03/17 00:44:55;;;;;;;6.30;2.30;;;4.50;99.90;;;;;;1905932;74;21495;-72
2021/03/17 00:47:21;;;;;;;5.60;2.05;;;4.50;99.90;;;;;;1912010;75;21072;-72
2021/03/17 00:49:47;;;;;;;1.52;1.42;;;4.50;99.90;;;;;;1891956;74;21094;-72
2021/03/17 00:52:13;;;;;;;5.97;2.02;;;4.50;99.90;;;;;;1907937;75;21088;-72
2021/03/17 00:54:39;;;;;;;2.47;1.82;;;4.50;99.90;;;;;;1903686;74;21151;-72
2021/03/17 00:57:05;;;;;;;5.03;2.15;;;4.60;99.90;;;;;;1902074;75;21072;-72
2021/03/17 00:59:32;;;;;;;1.65;1.55;;;4.60;99.90;;;;;;1908839;73;21080;-72
2021/03/17 01:01:58;;;;;;;2.22;1.75;;;4.60;99.90;;;;;;1897051;74;21095;-72
2021/03/17 01:04:24;;;;;;;3.65;1.60;;;4.60;99.90;;;;;;1903668;74;21474;-72
2021/03/17 01:06:50;;;;;;;1.60;1.50;;;4.60;99.90;;;;;;1897549;73;21512;-72
2021/03/17 01:09:16;;;;;;;2.40;2.17;;;4.60;99.90;;;;;;1908766;74;21485;-72
2021/03/17 01:11:42;;;;;;;2.33;1.77;;;4.40;99.90;;;;;;1884696;73;21058;-72
2021/03/17 01:14:08;;;;;;;2.83;1.90;;;4.50;99.90;;;;;;1901106;74;21091;-72
2021/03/17 01:16:34;;;;;;;3.42;2.27;;;4.40;99.90;;;;;;1893716;74;21146;-72
2021/03/17 01:19:01;;;;;;;2.02;1.75;;;4.40;99.90;;;;;;1901683;74;21079;-72
2021/03/17 01:21:27;;;;;;;4.12;2.35;;;4.40;99.90;;;;;;1884759;73;21129;-72
2021/03/17 01:23:53;;;;;;;2.95;2.15;;;4.40;99.90;;;;;;1879259;73;21114;-72
2021/03/17 01:26:19;;;;;;;5.08;1.95;;;4.50;99.90;;;;;;1912032;75;21048;-72
2021/03/17 01:28:45;;;;;;;2.67;2.08;;;4.50;99.90;;;;;;1905879;74;21080;-71
2021/03/17 01:31:12;;;;;;;2.25;1.92;;;4.60;99.90;;;;;;1912158;75;21079;-72
2021/03/17 01:33:38;;;;;;;2.12;1.80;;;4.60;99.90;;;;;;1900013;73;21080;-73
2021/03/17 01:36:05;;;;;;;2.10;1.90;;;4.60;99.90;;;;;;1882996;75;21049;-73
2021/03/17 01:38:31;;;;;;;2.42;1.87;;;4.50;99.90;;;;;;1912079;75;21126;-74
2021/03/17 01:40:57;;;;;;;2.98;2.02;;;4.50;99.90;;;;;;1912205;73;21084;-74
2021/03/17 01:43:23;;;;;;;2.70;1.87;;;4.40;99.90;;;;;;1912213;75;21479;-74
2021/03/17 01:45:50;;;;;;;10.38;2.22;;;4.40;99.90;;;;;;1901150;73;21153;-72
2021/03/17 01:48:16;;;;;;;2.72;2.05;;;4.40;99.90;;;;;;1912206;75;21154;-72
2021/03/17 01:50:42;;;;;;;3.70;2.50;;;4.40;99.90;;;;;;1912132;75;21080;-72
2021/03/17 01:53:08;;;;;;;6.45;3.10;;;4.30;99.90;;;;;;1912222;75;21080;-72
2021/03/17 01:55:34;;;;;;;3.33;2.70;;;4.20;99.90;;;;;;1891725;73;21179;-70
2021/03/17 01:58:00;;;;;;;2.75;1.92;;;4.00;99.90;;;;;;1908693;73;21080;-70
2021/03/17 02:00:26;;;;;;;2.47;1.90;;;3.90;99.90;;;;;;1905918;74;21088;-70
2021/03/17 02:02:52;;;;;;;3.37;2.67;;;3.80;99.90;;;;;;1911595;73;21613;-71
2021/03/17 02:05:19;;;;;;;3.35;2.20;;;3.70;99.90;;;;;;1888334;75;21504;-70
2021/03/17 02:07:45;;;;;;;3.42;2.15;;;3.60;99.90;;;;;;1894356;74;21503;-71
2021/03/17 02:10:11;;;;;;;3.85;2.70;;;3.50;99.90;;;;;;1895806;74;21057;-71
2021/03/17 02:12:37;;;;;;;2.45;1.98;;;3.50;99.90;;;;;;1882795;73;21054;-71
2021/03/17 02:15:03;;;;;;;3.30;2.52;;;3.50;99.90;;;;;;1905061;74;21081;-71
2021/03/17 02:17:29;;;;;;;4.17;2.50;;;3.50;99.90;;;;;;1900145;74;21147;-71
2021/03/17 02:19:55;;;;;;;3.72;2.72;;;3.40;99.90;;;;;;1914732;74;21083;-71
2021/03/17 02:22:21;;;;;;;3.00;2.08;;;3.40;99.90;;;;;;1894471;73;21152;-72
2021/03/17 02:24:48;;;;;;;4.35;2.55;;;3.40;99.90;;;;;;1903626;73;21088;-71
2021/03/17 02:27:14;;;;;;;4.45;2.60;;;3.50;99.90;;;;;;1901403;73;21508;-71
2021/03/17 02:29:40;;;;;;;2.62;2.42;;;3.50;99.90;;;;;;1879313;74;21666;-72
2021/03/17 02:32:06;;;;;;;3.35;2.52;;;3.60;99.90;;;;;;1897036;74;21472;-72
2021/03/17 02:34:32;;;;;;;2.90;2.30;;;3.60;99.90;;;;;;1914508;74;21041;-71
2021/03/17 02:36:58;;;;;;;4.10;2.58;;;3.70;99.90;;;;;;1914977;74;21096;-71
2021/03/17 02:39:24;;;;;;;5.03;2.60;;;3.70;99.90;;;;;;1907203;74;21085;-71
2021/03/17 02:41:50;;;;;;;3.45;2.65;;;3.80;99.90;;;;;;1912074;75;21080;-73
2021/03/17 02:44:17;;;;;;;3.10;2.62;;;3.70;99.90;;;;;;1905893;74;21087;-73
2021/03/17 02:46:43;;;;;;;2.70;2.20;;;3.70;99.90;;;;;;1901429;74;21093;-75
2021/03/17 02:49:09;;;;;;;3.10;2.40;;;3.80;99.90;;;;;;1894750;73;21508;-73
2021/03/17 02:51:35;;;;;;;2.72;2.45;;;3.80;99.90;;;;;;1896073;73;21472;-73
2021/03/17 02:54:01;;;;;;;3.15;2.75;;;3.80;99.90;;;;;;1911454;74;21488;-73
2021/03/17 02:56:28;;;;;;;3.12;2.50;;;3.80;99.90;;;;;;1907798;74;21153;-72
2021/03/17 02:58:54;;;;;;;3.72;2.40;;;3.80;99.90;;;;;;1903460;73;21097;-72
2021/03/17 03:01:20;;;;;;;3.72;2.45;;;3.80;99.90;;;;;;1903208;74;21160;-75
2021/03/17 03:03:46;;;;;;;3.47;2.27;;;3.80;99.90;;;;;;1906569;73;21137;-71
2021/03/17 03:06:12;;;;;;;3.08;2.52;;;3.80;99.90;;;;;;1899586;73;21095;-73
2021/03/17 03:08:38;;;;;;;2.30;1.98;;;3.80;99.90;;;;;;1879344;74;21163;-73
2021/03/17 03:11:04;;;;;;;2.33;2.12;;;3.90;99.90;;;;;;1903296;74;21534;-72
2021/03/17 03:13:30;;;;;;;2.15;1.95;;;3.80;99.90;;;;;;1902898;74;21580;-72
2021/03/17 03:15:57;;;;;;;2.02;1.82;;;3.90;99.90;;;;;;1904386;73;21481;-72
2021/03/17 03:18:23;;;;;;;2.72;1.95;;;3.80;99.90;;;;;;1905821;74;21159;-72
2021/03/17 03:20:49;;;;;;;5.17;2.20;;;3.90;99.90;;;;;;1905812;73;21058;-72
2021/03/17 03:23:15;;;;;;;2.98;2.12;;;3.80;99.90;;;;;;1887754;74;21081;-72
2021/03/17 03:25:41;;;;;;;2.42;2.22;;;3.80;99.90;;;;;;1892939;73;21085;-72
2021/03/17 03:28:13;;;;;;;2.60;2.02;;;3.90;99.90;;;;;;1879411;76;21089;-72
2021/03/17 03:30:40;;;;;;;1.98;1.85;;;3.80;99.90;;;;;;1909386;73;21066;-73
2021/03/17 03:33:06;;;;;;;2.80;2.60;;;3.80;99.90;;;;;;1903100;73;21050;-72
2021/03/17 03:35:32;;;;;;;5.78;2.65;;;3.80;99.90;;;;;;1911584;74;21053;-72
2021/03/17 03:37:59;;;;;;;3.75;2.33;;;3.80;99.90;;;;;;1912121;75;21077;-72
2021/03/17 03:40:25;;;;;;;3.10;2.62;;;3.80;99.90;;;;;;1900387;73;21071;-73
2021/03/17 03:42:51;;;;;;;2.40;2.20;;;3.80;99.90;;;;;;1900837;74;21093;-71
2021/03/17 03:45:18;;;;;;;2.90;2.37;;;3.70;99.90;;;;;;1879305;76;21172;-72
2021/03/17 03:47:44;;;;;;;2.50;2.25;;;3.80;99.90;;;;;;1890917;74;21155;-73
2021/03/17 03:50:10;;;;;;;5.50;2.50;;;3.90;99.90;;;;;;1884418;73;21555;-73
2021/03/17 03:52:36;;;;;;;2.40;2.20;;;3.90;99.90;;;;;;1935041;73;21485;-73
2021/03/17 03:55:02;;;;;;;5.10;3.00;;;3.90;99.90;;;;;;1894221;75;21448;-72
2021/03/17 03:57:28;;;;;;;3.08;2.30;;;3.80;99.90;;;;;;1936105;73;21149;-73
2021/03/17 03:59:54;;;;;;;2.83;2.52;;;3.80;99.90;;;;;;1930093;73;21107;-72
2021/03/17 04:02:20;;;;;;;3.25;2.55;;;3.80;99.90;;;;;;1931361;73;21084;-74
2021/03/17 04:04:47;;;;;;;3.40;2.98;;;3.80;99.90;;;;;;1891686;75;21083;-72
2021/03/17 04:07:13;;;;;;;3.50;2.35;;;3.80;99.90;;;;;;1936862;73;21073;-73
2021/03/17 04:09:39;;;;;;;2.87;2.52;;;3.80;99.90;;;;;;1903651;75;21152;-73
2021/03/17 04:12:05;;;;;;;2.75;2.55;;;3.80;99.90;;;;;;1938907;73;21041;-73
2021/03/17 04:14:31;;;;;;;2.47;2.27;;;3.70;99.90;;;;;;1891725;75;21051;-72
2021/03/17 04:16:57;;;;;;;4.05;3.12;;;3.70;99.90;;;;;;1935642;73;21071;-73
2021/03/17 04:19:23;;;;;;;2.98;2.67;;;3.70;99.90;;;;;;1936283;73;21145;-72
2021/03/17 04:21:49;;;;;;;2.58;2.37;;;3.70;99.90;;;;;;1927794;74;21145;-72
2021/03/17 04:24:15;;;;;;;3.35;2.67;;;3.70;99.90;;;;;;1896906;74;21502;-72
2021/03/17 04:26:42;;;;;;;3.15;2.65;;;3.70;99.90;;;;;;1934566;73;21539;-73
2021/03/17 04:29:08;;;;;;;3.10;2.80;;;3.80;99.90;;;;;;1932945;73;21472;-72
2021/03/17 04:31:34;;;;;;;3.58;2.80;;;3.70;99.90;;;;;;1899649;74;21056;-72
2021/03/17 04:34:00;;;;;;;3.37;3.08;;;3.80;99.90;;;;;;1929980;73;21068;-72
2021/03/17 04:36:26;;;;;;;4.80;2.95;;;3.80;99.90;;;;;;1894496;74;21077;-72
2021/03/17 04:38:52;;;;;;;4.53;3.17;;;3.80;99.90;;;;;;1933135;73;21075;-73
2021/03/17 04:41:18;;;;;;;4.30;3.12;;;3.80;99.90;;;;;;1897697;75;21152;-73
2021/03/17 04:43:44;;;;;;;5.22;3.33;;;3.80;99.90;;;;;;1932314;73;21158;-73
2021/03/17 04:46:11;;;;;;;3.75;3.35;;;3.80;99.90;;;;;;1937378;73;21068;-73
2021/03/17 04:48:37;;;;;;;3.10;2.80;;;3.80;99.90;;;;;;1936860;73;21057;-73
2021/03/17 04:51:03;;;;;;;2.95;2.62;;;3.90;99.90;;;;;;1899273;75;21077;-73
2021/03/17 04:53:29;;;;;;;2.92;2.58;;;3.90;99.90;;;;;;1945085;74;21064;-73
2021/03/17 04:55:55;;;;;;;3.62;2.98;;;3.80;99.90;;;;;;1894659;75;21141;-73
2021/03/17 04:58:21;;;;;;;4.50;2.92;;;3.80;99.90;;;;;;1935857;73;21502;-74
2021/03/17 05:00:47;;;;;;;5.85;3.52;;;3.80;99.90;;;;;;1897144;75;21494;-73
2021/03/17 05:03:13;;;;;;;3.62;3.27;;;3.80;99.90;;;;;;1935173;73;21566;-73
2021/03/17 05:05:39;;;;;;;4.15;3.22;;;3.90;99.90;;;;;;1893924;75;21038;-73
2021/03/17 05:08:06;;;;;;;7.42;3.90;;;3.90;99.90;;;;;;1914712;74;21061;-73
2021/03/17 05:10:32;;;;;;;4.25;2.92;;;3.90;99.90;;;;;;1915199;74;21079;-72
2021/03/17 05:12:58;;;;;;;4.75;3.40;;;3.90;99.90;;;;;;1906116;74;21118;-73
2021/03/17 05:15:24;;;;;;;3.60;2.98;;;3.90;99.90;;;;;;1884755;73;21187;-73
2021/03/17 05:17:50;;;;;;;4.47;3.12;;;3.90;99.90;;;;;;1906954;73;21134;-73
2021/03/17 05:20:16;;;;;;;4.62;3.37;;;3.90;99.90;;;;;;1886042;73;21120;-74
2021/03/17 05:22:42;;;;;;;5.05;3.75;;;3.90;99.90;;;;;;1895089;74;21195;-73
2021/03/17 05:25:08;;;;;;;6.08;3.92;;;3.80;99.90;;;;;;1888811;73;21110;-74
2021/03/17 05:27:35;;;;;;;3.50;3.02;;;3.90;99.90;;;;;;1934074;73;21116;-73
2021/03/17 05:30:01;;;;;;;7.78;3.75;;;3.90;99.90;;;;;;1936239;74;21159;-74
2021/03/17 05:32:27;;;;;;;6.72;3.42;;;3.80;99.90;;;;;;1936747;74;21532;-77
2021/03/17 05:34:53;;;;;;;5.15;3.62;;;3.90;99.90;;;;;;1898212;74;21067;-76
2021/03/17 05:37:19;;;;;;;4.15;3.45;;;3.90;99.90;;;;;;1934566;73;21079;-75
2021/03/17 05:39:45;;;;;;;6.17;3.27;;;3.90;99.90;;;;;;1930926;73;21111;-76
2021/03/17 05:42:11;;;;;;;5.78;3.70;;;3.90;99.90;;;;;;1902149;74;21071;-76
2021/03/17 05:44:37;;;;;;;4.42;3.92;;;3.90;99.90;;;;;;1936636;73;21147;-76
2021/03/17 05:47:04;;;;;;;9.58;4.42;;;3.90;99.90;;;;;;1896822;74;21047;-78
2021/03/17 05:49:30;;;;;;;4.55;3.45;;;3.90;99.90;;;;;;1913227;74;21161;-76
2021/03/17 05:51:56;;;;;;;5.55;3.75;;;3.90;99.90;;;;;;1896790;74;21116;-77
2021/03/17 05:54:22;;;;;;;7.67;4.78;;;4.00;99.90;;;;;;1883742;73;21125;-75
2021/03/17 05:56:48;;;;;;;7.95;4.72;;;4.00;99.90;;;;;;1902503;74;21609;-76
2021/03/17 05:59:14;;;;;;;4.53;3.87;;;4.00;99.90;;;;;;1893094;73;21488;-76
2021/03/17 06:01:40;;;;;;;5.53;4.62;;;4.00;99.90;;;;;;1882464;74;21611;-77
2021/03/17 06:04:06;;;;;;;5.37;4.40;;;4.00;99.90;;;;;;1914769;74;21053;-77
2021/03/17 06:06:33;;;;;;;11.15;5.15;;;4.00;99.90;;;;;;1889179;73;21052;-77
2021/03/17 06:08:59;;;;;;;6.40;4.67;;;4.00;99.90;;;;;;1887447;74;21157;-78
2021/03/17 06:11:25;;;;;;;6.67;4.97;;;4.00;99.90;;;;;;1890654;73;21161;-80
2021/03/17 06:13:51;;;;;;;8.60;5.12;;;4.00;99.90;;;;;;1902852;74;21163;-79
2021/03/17 06:16:18;;;;;;;8.33;5.35;;;4.10;99.90;;;;;;1842669;75;21489;-77
2021/03/17 06:18:44;;;;;;;7.25;5.55;;;4.10;99.90;;;;;;1884758;73;21538;-76
2021/03/17 06:21:10;;;;;;;15.58;5.20;;;4.10;99.90;;;;;;1892464;73;21552;-77
2021/03/17 06:23:36;;;;;;;5.65;5.00;;;4.10;99.90;;;;;;1907900;73;21147;-77
2021/03/17 06:26:02;;;;;;;8.05;5.70;;;4.20;99.90;;;;;;1907777;74;21048;-77
2021/03/17 06:28:28;;;;;;;7.75;5.10;;;4.10;99.90;;;;;;1884760;73;21147;-76
2021/03/17 06:30:54;;;;;;;9.00;4.85;;;4.10;99.90;;;;;;1891212;74;21091;-74
2021/03/17 06:33:20;;;;;;;5.83;4.62;;;4.00;99.90;;;;;;1913953;74;21234;-74
2021/03/17 06:35:47;;;;;;;7.35;4.97;;;4.10;99.90;;;;;;1914342;74;21153;-75
2021/03/17 06:38:13;;;;;;;8.25;5.47;;;4.00;99.90;;;;;;1914834;74;21128;-75
2021/03/17 06:40:39;;;;;;;8.88;5.25;;;4.00;99.90;;;;;;1936156;73;21131;-75
2021/03/17 06:43:05;;;;;;;6.95;4.95;;;4.00;99.90;;;;;;1893910;74;21056;-75
2021/03/17 06:45:31;;;;;;;6.72;4.90;;;4.00;99.90;;;;;;1933212;73;21063;-76
2021/03/17 06:47:57;;;;;;;6.08;4.67;;;4.00;99.90;;;;;;1891573;75;21209;-74
2021/03/17 06:50:23;;;;;;;5.62;4.10;;;4.00;99.90;;;;;;1937221;73;21563;-74
2021/03/17 06:52:49;;;;;;;7.03;4.40;;;4.20;99.90;;;;;;1897409;75;21497;-74
2021/03/17 06:55:16;;;;;;;6.53;5.15;;;4.20;99.90;;;;;;1909196;74;21649;-74
2021/03/17 06:57:42;;;;;;;6.87;4.53;;;4.30;99.90;;;;;;1885507;74;21084;-75
2021/03/17 07:00:08;;;;;;;8.55;5.25;;;4.20;99.90;;;;;;1896802;74;21143;-74
2021/03/17 07:02:34;;;;;;;8.20;5.15;;;4.20;99.90;;;;;;1878071;76;21260;-75
2021/03/17 07:05:00;;;;;;;9.33;6.42;;;4.30;99.90;;;;;;1866512;76;21062;-74
2021/03/17 07:07:26;;;;;;;7.28;5.12;;;4.40;99.90;;;;;;1871504;75;21161;-75
2021/03/17 07:09:52;;;;;;;10.35;6.40;;;4.50;99.90;;;;;;1853011;76;21171;-74
2021/03/17 07:12:18;;;;;;;10.15;6.15;;;4.60;99.90;;;;;;1872264;75;21150;-74
2021/03/17 07:14:44;;;;;;;10.03;5.85;;;4.70;99.90;;;;;;1861455;75;21597;-75
2021/03/17 07:17:11;;;;;;;11.53;6.83;;;4.80;99.90;;;;;;1863112;75;21501;-75
2021/03/17 07:19:37;;;;;;;13.68;6.90;;;4.80;99.90;;;;;;1880699;76;21468;-75
2021/03/17 07:22:03;;;;;;;21.35;7.72;;;4.80;99.90;;;;;;1879713;76;21138;-74
2021/03/17 07:24:29;;;;;;;10.13;7.37;;;4.70;99.90;;;;;;1861140;75;21080;-75
2021/03/17 07:26:55;;;;;;;11.48;7.45;;;4.60;99.90;;;;;;1864971;76;21152;-74
2021/03/17 07:29:21;;;;;;;14.80;7.55;;;4.50;99.90;;;;;;1864925;76;21169;-75
2021/03/17 07:31:47;;;;;;;12.10;6.33;;;4.50;99.90;;;;;;1865370;76;21092;-74
2021/03/17 07:34:14;;;;;;;11.15;7.30;;;4.50;99.90;;;;;;1870325;76;21068;-74
2021/03/17 07:36:40;;;;;;;16.45;7.70;;;4.60;99.90;;;;;;1873472;76;21177;-74
2021/03/17 07:39:06;;;;;;;12.15;6.10;;;4.70;99.90;;;;;;1874574;75;21065;-74
2021/03/17 07:41:32;;;;;;;8.45;5.75;;;4.90;99.90;;;;;;1858913;75;21175;-74
2021/03/17 07:44:00;;;;;;;10.78;7.25;;;4.90;99.90;;;;;;1847542;75;21081;-74
2021/03/17 07:46:26;;;;;;;11.35;7.28;;;4.70;99.90;;;;;;1851620;75;21158;-75
2021/03/17 07:48:52;;;;;;;10.43;7.12;;;4.80;99.90;;;;;;1874126;75;21154;-74
2021/03/17 07:51:18;;;;;;;12.23;7.15;;;5.10;99.90;;;;;;1862381;75;21096;-74
2021/03/17 07:53:45;;;;;;;9.90;6.53;;;5.30;99.90;;;;;;1874240;76;21057;-74
2021/03/17 07:56:11;;;;;;;10.75;6.45;;;5.50;99.90;;;;;;1879545;76;21056;-74
2021/03/17 07:58:38;;;;;;;14.83;6.53;;;5.60;99.90;;;;;;1879543;76;21075;-74
2021/03/17 08:01:04;;;;;;;9.60;6.08;;;5.60;99.90;;;;;;1861916;75;21096;-75
2021/03/17 08:03:30;;;;;;;14.90;6.72;;;5.60;99.90;;;;;;1874317;76;21169;-75
2021/03/17 08:05:56;;;;;;;16.45;6.75;;;5.40;99.90;;;;;;1879680;76;21056;-75
2021/03/17 08:08:23;;;;;;;10.28;6.42;;;5.20;99.90;;;;;;1859941;76;21061;-75
2021/03/17 08:10:50;;;;;;;11.57;6.58;;;5.30;99.90;;;;;;1858175;75;21485;-75
2021/03/17 08:13:16;;;;;;;13.40;6.45;;;5.50;99.90;;;;;;1852549;75;21511;-75
2021/03/17 08:15:42;;;;;;;12.82;6.47;;;5.40;99.90;;;;;;1879614;75;21091;-75
2021/03/17 08:18:08;;;;;;;8.05;6.12;;;5.50;99.90;;;;;;1850911;75;21096;-75
2021/03/17 08:20:34;;;;;;;7.15;5.67;;;5.30;99.90;;;;;;1863846;75;21103;-76
2021/03/17 08:23:00;;;;;;;14.70;6.60;;;5.30;99.90;;;;;;1859876;75;21062;-74
2021/03/17 08:25:26;;;;;;;9.03;5.47;;;5.40;99.90;;;;;;1858915;75;21095;-75
2021/03/17 08:27:52;;;;;;;10.70;5.33;;;5.60;99.90;;;;;;1858791;75;21159;-75
2021/03/17 08:30:19;;;;;;;9.33;5.70;;;5.80;99.90;;;;;;1847720;76;21158;-75
2021/03/17 08:32:45;;;;;;;7.35;5.42;;;5.70;99.90;;;;;;1863115;76;21173;-76
2021/03/17 08:35:11;;;;;;;8.55;5.47;;;5.80;99.90;;;;;;1879810;76;21057;-75
2021/03/17 08:37:37;;;;;;;12.28;5.45;;;5.80;99.90;;;;;;1861696;75;21150;-75
2021/03/17 08:40:03;;;;;;;9.65;5.70;;;5.80;99.90;;;;;;1874295;75;21097;-75
2021/03/17 08:42:29;;;;;;;11.57;6.00;;;6.00;99.90;;;;;;1862401;76;21096;-76
2021/03/17 08:44:55;;;;;;;17.90;6.20;;;6.30;99.90;;;;;;1879618;76;21206;-76
2021/03/17 08:47:21;;;;;;;8.75;5.10;;;6.60;99.90;;;;;;1879627;76;21076;-75
2021/03/17 08:49:48;;;;;;;8.13;5.28;;;7.10;99.90;;;;;;1874745;76;21066;-75
2021/03/17 08:52:14;;;;;;;7.78;4.80;;;7.50;99.90;;;;;;1866689;75;21088;-75
2021/03/17 08:54:47;;;;;;;8.60;4.78;;;7.40;99.90;;;;;;1879690;76;21051;-74
2021/03/17 08:57:13;;;;;;;6.83;4.40;;;7.20;99.90;;;;;;1868295;75;21115;-76
2021/03/17 08:59:39;;;;;;;6.35;4.22;;;7.20;99.90;;;;;;1861886;76;21089;-75
2021/03/17 09:02:05;;;;;;;6.15;3.90;;;7.30;99.90;;;;;;1870083;75;21098;-74
2021/03/17 09:04:31;;;;;;;6.22;3.85;;;7.20;99.90;;;;;;1847917;78;21053;-75
2021/03/17 09:06:57;;;;;;;5.17;3.87;;;7.30;99.90;;;;;;1862715;76;21087;-76
2021/03/17 09:09:24;;;;;;;3.58;3.08;;;7.70;99.90;;;;;;1856543;75;21103;-75
2021/03/17 09:11:50;;;;;;;6.53;4.00;;;7.80;99.90;;;;;;1873924;76;21058;-75
2021/03/17 09:14:16;;;;;;;5.95;3.52;;;7.70;99.90;;;;;;1855690;76;21151;-75
2021/03/17 09:16:42;;;;;;;7.58;3.92;;;8.00;99.90;;;;;;1874835;76;21162;-76
2021/03/17 09:19:08;;;;;;;5.47;3.65;;;7.60;99.90;;;;;;1872434;75;21088;-75
2021/03/17 09:21:34;;;;;;;4.12;2.65;;;7.20;99.90;;;;;;1858540;75;21084;-76
2021/03/17 09:24:00;;;;;;;3.85;2.67;;;6.80;99.90;;;;;;1851463;75;21179;-76
2021/03/17 09:26:27;;;;;;;4.20;2.90;;;6.50;99.90;;;;;;1871777;75;21097;-76
2021/03/17 09:28:53;;;;;;;3.10;2.52;;;6.50;99.90;;;;;;1869903;75;21068;-76
2021/03/17 09:31:19;;;;;;;4.03;2.70;;;6.30;99.90;;;;;;1883711;75;21170;-75
2021/03/17 09:33:45;;;;;;;5.55;3.22;;;6.20;99.90;;;;;;1881813;76;21196;-75
2021/03/17 09:36:11;;;;;;;7.55;2.20;;;6.00;99.90;;;;;;1869162;75;21097;-75
2021/03/17 09:38:38;;;;;;;5.83;2.75;;;6.30;99.90;;;;;;1877872;76;21181;-77
2021/03/17 09:41:04;;;;;;;3.67;2.00;;;6.60;99.90;;;;;;1882381;75;21099;-78
2021/03/17 09:43:30;;;;;;;2.85;2.05;;;7.10;99.90;;;;;;1879829;76;21471;-77
2021/03/17 09:45:56;;;;;;;2.12;1.87;;;8.00;99.90;;;;;;1853483;75;21508;-78
2021/03/17 09:48:22;;;;;;;2.65;1.75;;;8.30;99.90;;;;;;1877701;76;21578;-78
2021/03/17 09:50:48;;;;;;;4.30;2.22;;;8.80;99.90;;;;;;1879790;76;21084;-78
2021/03/17 09:53:14;;;;;;;3.77;2.05;;;8.90;99.90;;;;;;1879721;76;21096;-77
2021/03/17 09:55:40;;;;;;;2.90;2.05;;;8.50;99.90;;;;;;1876568;76;21131;-76
2021/03/17 09:58:07;;;;;;;3.40;2.05;;;8.60;99.90;;;;;;1847746;75;21218;-76
2021/03/17 10:00:33;;;;;;;1.70;1.60;;;8.50;99.90;;;;;;1857515;76;21057;-82
2021/03/17 10:02:59;;;;;;;5.55;2.00;;;7.80;99.90;;;;;;1879794;75;21057;-77
2021/03/17 10:05:25;;;;;;;2.42;1.70;;;7.70;99.90;;;;;;1862177;75;21163;-77
2021/03/17 10:07:51;;;;;;;2.85;1.90;;;8.20;99.90;;;;;;1850123;75;21104;-75
2021/03/17 10:10:18;;;;;;;7.35;1.80;;;8.40;99.90;;;;;;1879706;75;21096;-76
2021/03/17 10:12:44;;;;;;;1.87;1.52;;;8.20;99.90;;;;;;1847735;75;21105;-76
2021/03/17 10:15:10;;;;;;;1.95;1.72;;;7.50;99.90;;;;;;1871149;76;21161;-76
2021/03/17 10:17:36;;;;;;;4.62;2.08;;;7.70;99.90;;;;;;1871615;76;21551;-76
2021/03/17 10:20:03;;;;;;;3.87;1.82;;;7.80;99.90;;;;;;1853493;75;21504;-76
2021/03/17 10:22:29;;;;;;;1.87;1.67;;;7.30;99.90;;;;;;1876112;75;21485;-77
2021/03/17 10:24:55;;;;;;;2.75;1.85;;;7.10;99.90;;;;;;1849906;75;21088;-76
2021/03/17 10:27:21;;;;;;;3.90;1.50;;;7.00;99.90;;;;;;1873725;75;21100;-75
2021/03/17 10:29:47;;;;;;;1.57;1.37;;;7.10;99.90;;;;;;1877741;76;21095;-79
2021/03/17 10:32:13;;;;;;;2.52;1.52;;;7.10;99.90;;;;;;1858012;76;21153;-78
2021/03/17 10:34:39;;;;;;;1.37;1.22;;;7.10;99.90;;;;;;1874443;75;21147;-80
2021/03/17 10:37:05;;;;;;;2.00;1.37;;;7.10;99.90;;;;;;1869271;75;21065;-78
2021/03/17 10:39:32;;;;;;;6.90;1.72;;;6.90;99.90;;;;;;1849390;75;21167;-76
2021/03/17 10:41:58;;;;;;;1.92;1.67;;;6.50;99.90;;;;;;1850447;75;21166;-78
2021/03/17 10:44:24;;;;;;;4.70;1.60;;;6.40;99.90;;;;;;1848949;75;21167;-81
2021/03/17 10:46:50;;;;;;;3.92;2.08;;;6.30;99.90;;;;;;1882677;76;21573;-78
2021/03/17 10:49:18;;;;;;;3.12;2.08;;;6.10;99.90;;;;;;1876886;75;21495;-78
2021/03/17 10:51:44;;;;;;;2.20;1.98;;;5.70;99.90;;;;;;1883706;75;21103;-77
2021/03/17 10:54:10;;;;;;;2.83;2.15;;;5.50;99.90;;;;;;1861676;75;21066;-75
2021/03/17 10:56:36;;;;;;;5.53;2.40;;;5.20;99.90;;;;;;1858695;76;21219;-77
2021/03/17 10:59:02;;;;;;;5.28;2.62;;;5.20;99.90;;;;;;1858234;75;21514;-76
2021/03/17 11:01:30;;;;;;;3.40;2.50;;;5.30;99.90;;;;;;1873106;76;21495;-76
2021/03/17 11:03:56;;;;;;;5.65;2.85;;;5.30;99.90;;;;;;1868107;75;21163;-77
2021/03/17 11:06:22;;;;;;;3.20;2.27;;;5.60;99.90;;;;;;1871312;75;21103;-76
2021/03/17 11:08:49;;;;;;;3.25;2.22;;;6.30;99.90;;;;;;1865274;75;21099;-76
2021/03/17 11:11:15;;;;;;;3.15;2.35;;;7.30;99.90;;;;;;1868450;76;21109;-77
2021/03/17 11:13:42;;;;;;;5.80;2.50;;;7.70;99.90;;;;;;1865532;75;21141;-76
2021/03/17 11:16:08;;;;;;;4.03;2.10;;;7.00;99.90;;;;;;1884273;76;21476;-75
2021/03/17 11:18:34;;;;;;;3.42;1.80;;;7.10;99.90;;;;;;1874852;75;21553;-76
2021/03/17 11:21:00;;;;;;;2.60;2.12;;;6.70;99.90;;;;;;1876580;75;21089;-77
2021/03/17 11:23:26;;;;;;;6.90;2.27;;;6.70;99.90;;;;;;1882183;76;21146;-77
2021/03/17 11:25:53;;;;;;;2.62;2.08;;;6.70;99.90;;;;;;1876358;76;21093;-77
2021/03/17 11:28:19;;;;;;;3.42;2.35;;;6.80;99.90;;;;;;1869846;75;21060;-77
2021/03/17 11:30:47;;;;;;;1.75;1.62;;;6.40;99.90;;;;;;1882240;76;21160;-77
2021/03/17 11:33:13;;;;;;;3.25;2.10;;;6.20;99.90;;;;;;1882515;76;21116;-78
2021/03/17 11:35:39;;;;;;;6.15;2.37;;;6.30;99.90;;;;;;1868615;75;21097;-77
2021/03/17 11:38:05;;;;;;;3.00;2.02;;;6.30;99.90;;;;;;1862092;76;21157;-77
2021/03/17 11:40:31;;;;;;;2.95;1.80;;;6.20;99.90;;;;;;1850220;75;21170;-78
2021/03/17 11:43:00;;;;;;;4.80;2.02;;;6.20;99.90;;;;;;1869231;75;21100;-76
2021/03/17 11:45:25;;;;;;;3.55;1.95;;;6.20;99.90;;;;;;1879546;76;21528;-76
2021/03/17 11:47:51;;;;;;;2.50;1.80;;;6.10;99.90;;;;;;1862489;76;21517;-76
2021/03/17 11:50:18;;;;;;;3.15;2.02;;;6.20;99.90;;;;;;1866942;76;21511;-77
2021/03/17 11:52:44;;;;;;;2.60;2.30;;;6.20;99.90;;;;;;1879619;76;21149;-76
2021/03/17 11:55:10;;;;;;;2.75;1.77;;;6.00;99.90;;;;;;1848506;75;21089;-77
2021/03/17 11:57:38;;;;;;;1.82;1.65;;;6.20;99.90;;;;;;1852631;75;21095;-76
2021/03/17 12:00:04;;;;;;;1.45;1.35;;;6.40;99.90;;;;;;1858948;76;21557;-77
2021/03/17 12:02:30;;;;;;;3.02;2.20;;;6.10;99.90;;;;;;1852473;76;21488;-76
2021/03/17 12:04:56;;;;;;;3.42;2.08;;;6.00;99.90;;;;;;1861562;75;21065;-76
2021/03/17 12:07:22;;;;;;;4.00;2.10;;;5.90;99.90;;;;;;1879556;75;21154;-76
2021/03/17 12:09:48;;;;;;;2.42;1.82;;;5.90;99.90;;;;;;1879528;76;21092;-77
2021/03/17 12:12:14;;;;;;;1.72;1.62;;;6.00;99.90;;;;;;1856585;75;21097;-77
2021/03/17 12:14:41;;;;;;;2.95;1.92;;;6.00;99.90;;;;;;1873591;75;21166;-78
2021/03/17 12:17:07;;;;;;;14.87;2.87;;;6.00;99.90;;;;;;1868204;75;21218;-79
2021/03/17 12:19:33;;;;;;;5.20;2.20;;;5.90;99.90;;;;;;1879778;76;21049;-77
2021/03/17 12:21:59;;;;;;;2.10;1.90;;;5.90;99.90;;;;;;1855289;75;21096;-77
2021/03/17 12:24:25;;;;;;;3.40;2.33;;;5.80;99.90;;;;;;1868980;75;21091;-78
2021/03/17 12:26:51;;;;;;;7.37;2.85;;;5.60;99.90;;;;;;1867658;76;21088;-78
2021/03/17 12:29:17;;;;;;;6.80;3.00;;;5.40;99.90;;;;;;1879600;76;21145;-79
2021/03/17 12:31:43;;;;;;;4.78;2.72;;;5.20;99.90;;;;;;1879727;76;21161;-79
2021/03/17 12:34:10;;;;;;;22.07;3.22;;;4.90;99.90;;;;;;1867745;75;21491;-76
2021/03/17 12:36:36;;;;;;;7.95;4.03;;;5.00;99.90;;;;;;1841387;76;21061;-78
2021/03/17 12:39:02;;;;;;;13.95;2.45;;;5.20;99.90;;;;;;1863470;75;21093;-76
2021/03/17 12:41:28;;;;;;;5.35;2.62;;;5.30;99.90;;;;;;1869142;75;21091;-78
2021/03/17 12:43:54;;;;;;;8.60;3.05;;;5.40;99.90;;;;;;1851977;76;21093;-79
2021/03/17 12:46:20;;;;;;;7.12;3.42;;;5.30;99.90;;;;;;1851708;76;21105;-74
2021/03/17 12:48:46;;;;;;;12.47;3.20;;;5.30;99.90;;;;;;1866794;76;21052;-76